• Join FlightAware (Why Join?)
  • Login
  • US Flag 
11:19AM EDT


 

Airport Tracker/Info


-or-


 

Live Flight TrackerFlight Track Log ✈ RAX81 ✈ 16-May-2013 ✈ KFTY - KBWI

Flight Track Log - Related Links

Times and Time Zones

All times are in EDT time to prevent confusion due to time zone crossing. See the RAX81 flight status page for this flight to view local times or setup timezone preferences in your user account.

Time Position Orientation Groundspeed Altitude Reporting Facility
EDT Latitude Longitude Course Direction KTS MPH feet Rate Location/Type
01:20AM 33.8167 -84.5333 68° East 173 199 5,300  Level Atlanta TRACON
01:21AM 33.8167 -84.4833 90° East 183 211 6,500 1,140 Climbing Atlanta TRACON
01:22AM 33.8333 -84.4167 73° East 197 227 7,500 1,200 Climbing Atlanta TRACON
01:23AM 33.8333 -84.3500 90° East 197 227 8,900 1,320 Climbing Atlanta TRACON
01:24AM 33.8401 -84.0096 79° East  Level FlightAware Approximate
01:24AM 33.8500 -84.2833 73° East 189 217 10,200  Level Atlanta TRACON
01:25AM 33.8500 -84.2333 90° East 179 206 11,300 900 Climbing Atlanta TRACON
01:26AM 33.8500 -84.1667 90° East 195 224 12,000 780 Climbing Atlanta TRACON
01:27AM 33.8589 -84.1239 76° East 201 231 12,600 780 Climbing Atlanta Center
01:28AM 33.8631 -84.0639 85° East 207 238 13,300 720 Climbing Atlanta Center
01:29AM 33.8672 -83.9961 86° East 201 231 14,100 780 Climbing Atlanta Center
01:30AM 33.8819 -83.9336 74° East 191 220 14,900 780 Climbing Atlanta Center
01:31AM 33.9131 -83.8786 56° Northeast 191 220 15,700 660 Climbing Atlanta Center
01:32AM 33.9464 -83.8233 54° Northeast 197 227 16,300 540 Climbing Atlanta Center
01:33AM 33.9797 -83.7683 54° Northeast 197 227 16,800 600 Climbing Atlanta Center
01:34AM 34.0131 -83.7131 54° Northeast 197 227 17,500 600 Climbing Atlanta Center
01:35AM 34.0461 -83.6578 54° Northeast 197 227 18,000 480 Climbing Atlanta Center
01:36AM 34.0814 -83.5947 56° Northeast 197 227 18,500 540 Climbing Atlanta Center
01:37AM 34.1125 -83.5369 57° Northeast 202 232 19,100 540 Climbing Atlanta Center
01:38AM 34.1458 -83.4817 54° Northeast 197 227 19,600 480 Climbing Atlanta Center
01:39AM 34.1767 -83.4236 57° Northeast 204 235 20,100 480 Climbing Atlanta Center
01:40AM 34.2097 -83.3631 57° Northeast 204 235 20,600 360 Climbing Atlanta Center
01:41AM 34.2450 -83.3075 52° Northeast 204 235 20,900 360 Climbing Atlanta Center
01:42AM 34.2758 -83.2469 58° Northeast 204 235 21,400 360 Climbing Atlanta Center
01:43AM 34.3089 -83.1861 57° Northeast 210 242 21,700 300 Climbing Atlanta Center
01:44AM 34.3439 -83.1306 53° Northeast 215 247 22,000 300 Climbing Atlanta Center
01:45AM 34.3811 -83.0747 51° Northeast 215 247 22,400 300 Climbing Atlanta Center
01:46AM 34.4142 -83.0267 50° Northeast 215 247 22,700 300 Climbing Atlanta Center
01:47AM 34.4492 -82.9683 54° Northeast 210 242 23,000 120 Climbing Atlanta Center
01:48AM 34.4819 -82.9047 58° Northeast 210 242 23,000  Level Atlanta Center
01:49AM 34.5211 -82.8411 53° Northeast 226 260 23,000  Level Atlanta Center
01:50AM 34.5600 -82.7775 53° Northeast 231 266 23,000  Level Atlanta Center
01:51AM 34.5947 -82.7114 57° Northeast 231 266 23,000  Level Atlanta Center
01:52AM 34.6317 -82.6453 56° Northeast 236 272 23,000  Level Atlanta Center
01:53AM 34.6725 -82.5739 55° Northeast 236 272 23,000  Level Atlanta Center
01:54AM 34.7092 -82.5100 55° Northeast 236 272 23,000  Level Atlanta Center
01:55AM 34.7522 -82.4486 50° Northeast 236 272 23,000  Level Atlanta Center
01:56AM 34.7933 -82.3897 50° Northeast 230 265 23,000  Level Atlanta Center
01:57AM 34.8322 -82.3333 50° Northeast 230 265 23,000  Level Atlanta Center
01:58AM 34.8753 -82.2767 47° Northeast 230 265 23,000  Level Atlanta Center
01:59AM 34.9222 -82.2200 45° Northeast 230 265 23,000  Level Atlanta Center
02:00AM 34.9631 -82.1581 51° Northeast 235 270 23,000  Level Atlanta Center
02:01AM 35.0061 -82.0989 48° Northeast 235 270 23,000  Level Atlanta Center
02:02AM 35.0511 -82.0419 46° Northeast 235 270 23,000  Level Atlanta Center
02:03AM 35.0919 -81.9853 49° Northeast 230 265 23,000  Level Atlanta Center
02:04AM 35.1347 -81.9283 47° Northeast 225 259 23,000  Level Atlanta Center
02:05AM 35.1836 -81.8661 46° Northeast 225 259 23,000  Level Atlanta Center
02:06AM 35.2244 -81.8117 47° Northeast 220 253 23,000  Level Atlanta Center
02:07AM 35.2714 -81.7517 46° Northeast 225 259 23,000  Level Atlanta Center
02:08AM 35.3119 -81.6972 48° Northeast 225 259 23,000 -60 Level Atlanta Center
02:09AM 35.3569 -81.6425 45° Northeast 220 253 22,900  Descending Atlanta Center
02:10AM 35.3997 -81.5878 46° Northeast 220 253 23,000  Climbing Atlanta Center
02:11AM 35.4444 -81.5303 46° Northeast 225 259 23,000 -60 Level Atlanta Center
02:12AM 35.4869 -81.4753 46° Northeast 225 259 22,900 -60 Descending Atlanta Center
02:13AM 35.5278 -81.4231 46° Northeast 225 259 22,900  Level Atlanta Center
02:14AM 35.5722 -81.3656 46° Northeast 225 259 22,900  Level Atlanta Center
02:15AM 35.6128 -81.3056 50° Northeast 219 252 22,900  Level Atlanta Center
02:16AM 35.6592 -81.2425 48° Northeast 229 264 22,900  Level Atlanta Center
02:17AM 35.7164 -81.1844 39° Northeast 235 270 22,900  Level Atlanta Center
02:18AM 35.7589 -81.1292 47° Northeast 235 270 22,900  Level Atlanta Center
02:19AM 35.8053 -81.0686 47° Northeast 230 265 22,900  Level Atlanta Center
02:20AM 35.8478 -81.0133 47° Northeast 221 254 22,900 60 Level Atlanta Center
02:21AM 35.8922 -80.9525 48° Northeast 221 254 23,100 60 Climbing Atlanta Center
02:22AM 35.9328 -80.9050 43° Northeast 221 254 23,100  Level Atlanta Center
02:23AM 35.9769 -80.8442 48° Northeast 226 260 23,100 -60 Level Atlanta Center
02:24AM 36.0214 -80.7886 45° Northeast 226 260 23,000 -60 Descending Atlanta Center
02:25AM 36.0658 -80.7303 47° Northeast 226 260 23,000  Level Atlanta Center
02:26AM 36.1058 -80.6669 52° Northeast 226 260 23,000  Level Atlanta Center
02:27AM 36.1436 -80.6036 54° Northeast 231 266 23,000  Level Atlanta Center
02:28AM 36.1875 -80.5350 52° Northeast 231 266 23,000  Level Atlanta Center
02:29AM 36.2256 -80.4792 50° Northeast 231 266 23,000  Level Atlanta Center
02:30AM 36.2656 -80.4156 52° Northeast 226 260 23,000  Level Atlanta Center
02:31AM 36.3053 -80.3544 51° Northeast 226 260 23,000  Level Atlanta Center
02:32AM 36.3453 -80.2933 51° Northeast 226 260 23,000  Level Atlanta Center
02:33AM 36.3889 -80.2244 52° Northeast 226 260 23,000  Level Atlanta Center
02:34AM 36.4308 -80.1656 48° Northeast 226 260 23,000  Level Atlanta Center
02:35AM 36.4708 -80.1042 51° Northeast 226 260 23,000 -180 Level Atlanta Center
02:37AM 36.5419 -79.9900 52° Northeast  Level FlightAware Approximate
02:44AM 36.8224 -79.5810 49° Northeast  Level FlightAware Approximate
02:45AM 36.8626 -79.5226 49° Northeast  Level FlightAware Approximate
02:46AM 36.9018 -79.4632 51° Northeast  Level FlightAware Approximate
02:47AM 36.9409 -79.4036 51° Northeast  Level FlightAware Approximate
02:48AM 36.9800 -79.3440 51° Northeast  Level FlightAware Approximate
02:49AM 37.0191 -79.2843 51° Northeast  Level FlightAware Approximate
02:50AM 37.0581 -79.2245 51° Northeast  Level FlightAware Approximate
02:51AM 37.0971 -79.1647 51° Northeast  Level FlightAware Approximate
02:52AM 37.1361 -79.1048 51° Northeast  Level FlightAware Approximate
02:53AM 37.1758 -79.0458 49° Northeast  Level FlightAware Approximate
02:54AM 37.2161 -78.9872 49° Northeast  Level FlightAware Approximate
02:55AM 37.2563 -78.9285 49° Northeast  Level FlightAware Approximate
02:56AM 37.2965 -78.8698 49° Northeast  Level FlightAware Approximate
02:57AM 37.3367 -78.8110 49° Northeast  Level FlightAware Approximate
02:58AM 37.3768 -78.7522 49° Northeast  Level FlightAware Approximate
02:59AM 37.4169 -78.6933 49° Northeast  Level FlightAware Approximate
03:00AM 37.4570 -78.6343 49° Northeast  Level FlightAware Approximate
03:01AM 37.4970 -78.5753 49° Northeast  Level FlightAware Approximate
03:02AM 37.5370 -78.5162 49° Northeast  Level FlightAware Approximate
03:03AM 37.5770 -78.4571 50° Northeast  Level FlightAware Approximate
03:04AM 37.6170 -78.3978 50° Northeast  Level FlightAware Approximate
03:05AM 37.6569 -78.3386 50° Northeast  Level FlightAware Approximate
03:06AM 37.6968 -78.2792 50° Northeast  Level FlightAware Approximate
03:07AM 37.7367 -78.2198 50° Northeast  Level FlightAware Approximate
03:08AM 37.7765 -78.1603 50° Northeast  Level FlightAware Approximate
03:09AM 37.8163 -78.1008 50° Northeast  Level FlightAware Approximate
03:10AM 37.8561 -78.0412 50° Northeast  Level FlightAware Approximate
03:11AM 37.8958 -77.9815 50° Northeast  Level FlightAware Approximate
03:12AM 37.9355 -77.9218 50° Northeast  Level FlightAware Approximate
03:13AM 37.9743 -77.8611 52° Northeast  Level FlightAware Approximate
03:14AM 38.0126 -77.7998 52° Northeast  Level FlightAware Approximate
03:15AM 38.0505 -77.7381 53° Northeast  Level FlightAware Approximate
03:16AM 38.0908 -77.6833 North  Level FlightAware Approximate
03:17AM 38.1281 -77.6271 58° Northeast  Level FlightAware Approximate
03:17AM 38.2833 -77.4333 50° Northeast 290 334 17,400  Level Potomac TRACON
03:18AM 38.1656 -77.5650 51° Northeast  Level FlightAware Approximate
03:18AM 38.3333 -77.3333 57° Northeast 294 338 16,200  Level Potomac TRACON
03:19AM 38.2040 -77.5037 52° Northeast  Level FlightAware Approximate
03:19AM 38.3833 -77.2500 53° Northeast 289 333 15,000  Level Potomac TRACON
03:20AM 38.2451 -77.4454 46° Northeast  Level FlightAware Approximate
03:20AM 38.4333 -77.1833 46° Northeast 291 335 14,000  Level Potomac TRACON
03:21AM 38.2830 -77.3839 57° Northeast  Level FlightAware Approximate
03:21AM 38.4833 -77.1000 53° Northeast 289 333 13,000  Level Potomac TRACON
03:22AM 38.3253 -77.3370 50° Northeast  Level FlightAware Approximate
03:23AM 38.5237 -77.0105 52° Northeast  Level FlightAware Approximate
03:23AM 38.5833 -76.9500 52° Northeast 290 334 11,100  Level Potomac TRACON
03:24AM 38.6333 -76.8667 52° Northeast 278 320 11,000 -60 Descending Potomac TRACON
03:25AM 38.6667 -76.8167 49° Northeast 266 306 11,000 -420 Level Potomac TRACON
03:26AM 38.7167 -76.7333 52° Northeast 259 298 10,300 -840 Descending Potomac TRACON
03:27AM 38.7667 -76.7000 27° Northeast 270 311 9,400 -1,140 Descending Potomac TRACON
03:28AM 38.8333 -76.6833 11° North 261 300 8,200 -1,260 Descending Potomac TRACON
03:29AM 38.9000 -76.6667 11° North 249 287 7,100 -1,200 Descending Potomac TRACON
03:30AM 38.9667 -76.6333 21° North 237 273 5,800 -1,440 Descending Potomac TRACON
03:31AM 39.0167 -76.6333 360° North 222 255 4,300 -1,680 Descending Potomac TRACON
03:32AM 39.0833 -76.6333 360° North 213 245 2,500 -1,740 Descending Potomac TRACON
03:33AM 39.1333 -76.6167 14° North 210 242 1,100 -1,140 Descending Potomac TRACON
03:34AM 39.1667 -76.6333 339° North 206 237 500 -720 Descending Potomac TRACON
03:36AM 39.1667 -76.6667 North  Level FlightAware Approximate